La Sardane — FO4883 — position and weather

sailwx.info

Track history (hours):
 
Tides and Currents Weather Stations Pressure Air Temp Water Temp Dewpoint Dewpoint Depression Visibility Wind Speed Wind Dir Waves Ship Positions

La Sardane

Last reported at 2017-Sep-20 21:00 UTC. Time now 2017-Sep-20 23:59 UTC.
Position N 47°59' W 004°36'.

Length 16 m.

Type: Fishing. MMSI: 227318010.

Date/timePositionNaut miles runAvg speedWind from/ knotsBaromVisibWave heightAir tempDewpointWater temp
2017-Sep-20 21:00N 47°59' W 004°36'3 5.6
2017-Sep-20 20:30N 47°57' W 004°37'4 7.7
2017-Sep-20 20:01N 47°55' W 004°42'2 4.2
2017-Sep-20 19:30N 47°57' W 004°41'4 7.7
2017-Sep-20 19:00N 47°54' W 004°37'4 8.3
2017-Sep-20 18:29N 47°52' W 004°32'4 8.1
2017-Sep-20 17:59N 47°50' W 004°27'3 5.4
2017-Sep-20 17:30N 47°49' W 004°23'0 0.2
2017-Sep-20 16:57N 47°49' W 004°23'0 0.0
2017-Sep-20 07:58N 47°49' W 004°23'0 0.1
2017-Sep-20 07:30N 47°49' W 004°23'0 0.0
2017-Sep-20 06:53N 47°49' W 004°23'0 0.0
2017-Sep-20 06:30N 47°49' W 004°23'0 0.0
2017-Sep-20 05:52N 47°49' W 004°23'0 0.0
2017-Sep-20 05:26N 47°49' W 004°23'0 0.0
2017-Sep-20 04:59N 47°49' W 004°23'0 0.0
2017-Sep-20 04:29N 47°49' W 004°23'2 3.8
2017-Sep-20 03:58N 47°49' W 004°26'4 9.1
2017-Sep-20 03:28N 47°50' W 004°32'4 8.9
2017-Sep-20 03:00N 47°50' W 004°39'4 8.1
2017-Sep-20 02:30N 47°50' W 004°44'2 3.1
2017-Sep-20 02:00N 47°50' W 004°47'1 1.0
2017-Sep-20 01:30N 47°49' W 004°47'1 1.0
2017-Sep-20 00:59N 47°49' W 004°46'0 0.9
2017-Sep-20 00:26N 47°48' W 004°46'0 0.8
2017-Sep-20 00:00N 47°48' W 004°46'3 6.3
2017-Sep-19 23:30N 47°51' W 004°46'4 7.9
2017-Sep-19 23:00N 47°55' W 004°46'1 3.0
2017-Sep-19 22:31N 47°57' W 004°45'2 3.3
2017-Sep-19 22:01N 47°57' W 004°43'0 0.6
2017-Sep-19 21:30N 47°57' W 004°43'0 0.6
2017-Sep-19 20:59N 47°57' W 004°42'1 1.8
2017-Sep-19 20:30N 47°57' W 004°41'2 3.4
2017-Sep-19 20:00N 47°56' W 004°39'0 0.2
2017-Sep-19 19:29N 47°56' W 004°39'2 2.9
2017-Sep-19 18:58N 47°55' W 004°37'9 8.3
2017-Sep-19 17:52N 47°50' W 004°26'2 2.3
2017-Sep-19 16:48N 47°49' W 004°23'0 0.0
2017-Sep-19 06:03N 47°49' W 004°23'0 0.2
2017-Sep-19 05:53N 47°49' W 004°23'6 1.4
2017-Sep-19 01:27N 47°52' W 004°30'4 8.9
2017-Sep-19 00:59N 47°55' W 004°35'3 7.1
2017-Sep-19 00:30N 47°56' W 004°40'0 0.6
2017-Sep-18 23:49N 47°56' W 004°40'0 0.6
2017-Sep-18 23:31N 47°56' W 004°40'0 0.5
2017-Sep-18 23:00N 47°56' W 004°40'1 0.5
2017-Sep-18 22:03N 47°55' W 004°40'0 1.0
2017-Sep-18 22:00N 47°55' W 004°40'1 1.5
2017-Sep-18 21:30N 47°55' W 004°39'0 0.9
2017-Sep-18 21:01N 47°55' W 004°38'0 0.9
2017-Sep-18 20:30N 47°55' W 004°37'12 5.9
2017-Sep-18 18:33N 47°49' W 004°23'0 0.3
2017-Sep-18 18:07N 47°49' W 004°23'0 0.0
2017-Sep-18 17:54N 47°49' W 004°23'0 0.0
2017-Sep-18 12:38N 47°49' W 004°23'0 0.0
2017-Sep-18 02:24N 47°49' W 004°23'0 0.0
2017-Sep-18 01:56N 47°49' W 004°23'0 0.0
2017-Sep-18 01:30N 47°49' W 004°23'0 0.1
2017-Sep-17 23:53N 47°49' W 004°23'0 0.0
2017-Sep-17 22:53N 47°49' W 004°23'0 0.2
2017-Sep-17 21:53N 47°49' W 004°23'3 6.5
2017-Sep-17 21:29N 47°51' W 004°25'2 3.7
2017-Sep-17 20:58N 47°53' W 004°25'0 0.4
2017-Sep-17 20:09N 47°53' W 004°25'0 0.1
2017-Sep-17 20:01N 47°53' W 004°25'1 2.5
2017-Sep-17 19:30N 47°54' W 004°24'1 2.1
2017-Sep-17 18:58N 47°53' W 004°24'4 4.1
2017-Sep-17 17:58N 47°49' W 004°23'  
2017-Sep-15 12:53N 47°49' W 004°23'0 0.0
2017-Sep-15 01:48N 47°49' W 004°23'0 0.1
2017-Sep-14 23:48N 47°49' W 004°23'0 0.0
2017-Sep-14 22:48N 47°49' W 004°23'5 5.5
2017-Sep-14 21:53N 47°54' W 004°24'1 0.6
2017-Sep-14 20:58N 47°54' W 004°25'1 0.5
2017-Sep-14 19:58N 47°54' W 004°25'5 5.1
2017-Sep-14 18:58N 47°49' W 004°23'  
Track history (hours):
 
Tides and Currents Weather Stations Pressure Air Temp Water Temp Dewpoint Dewpoint Depression Visibility Wind Speed Wind Dir Waves Ship Positions

La Sardane

Last reported at 2017-Sep-20 21:00 UTC. Time now 2017-Sep-20 23:59 UTC.
Position N 47°59' W 004°36'.

Length 16 m.

Type: Fishing. MMSI: 227318010.

Date/timePositionNaut miles runAvg speedWind from/ knotsBaromVisibWave heightAir tempDewpointWater temp
2017-Sep-20 21:00N 47°59' W 004°36'3 5.6
2017-Sep-20 20:30N 47°57' W 004°37'4 7.7
2017-Sep-20 20:01N 47°55' W 004°42'2 4.2
2017-Sep-20 19:30N 47°57' W 004°41'4 7.7
2017-Sep-20 19:00N 47°54' W 004°37'4 8.3
2017-Sep-20 18:29N 47°52' W 004°32'4 8.1
2017-Sep-20 17:59N 47°50' W 004°27'3 5.4
2017-Sep-20 17:30N 47°49' W 004°23'0 0.2
2017-Sep-20 16:57N 47°49' W 004°23'0 0.0
2017-Sep-20 07:58N 47°49' W 004°23'0 0.1
2017-Sep-20 07:30N 47°49' W 004°23'0 0.0
2017-Sep-20 06:53N 47°49' W 004°23'0 0.0
2017-Sep-20 06:30N 47°49' W 004°23'0 0.0
2017-Sep-20 05:52N 47°49' W 004°23'0 0.0
2017-Sep-20 05:26N 47°49' W 004°23'0 0.0
2017-Sep-20 04:59N 47°49' W 004°23'0 0.0
2017-Sep-20 04:29N 47°49' W 004°23'2 3.8
2017-Sep-20 03:58N 47°49' W 004°26'4 9.1
2017-Sep-20 03:28N 47°50' W 004°32'4 8.9
2017-Sep-20 03:00N 47°50' W 004°39'4 8.1
2017-Sep-20 02:30N 47°50' W 004°44'2 3.1
2017-Sep-20 02:00N 47°50' W 004°47'1 1.0
2017-Sep-20 01:30N 47°49' W 004°47'1 1.0
2017-Sep-20 00:59N 47°49' W 004°46'0 0.9
2017-Sep-20 00:26N 47°48' W 004°46'0 0.8
2017-Sep-20 00:00N 47°48' W 004°46'3 6.3
2017-Sep-19 23:30N 47°51' W 004°46'4 7.9
2017-Sep-19 23:00N 47°55' W 004°46'1 3.0
2017-Sep-19 22:31N 47°57' W 004°45'2 3.3
2017-Sep-19 22:01N 47°57' W 004°43'0 0.6
2017-Sep-19 21:30N 47°57' W 004°43'0 0.6
2017-Sep-19 20:59N 47°57' W 004°42'1 1.8
2017-Sep-19 20:30N 47°57' W 004°41'2 3.4
2017-Sep-19 20:00N 47°56' W 004°39'0 0.2
2017-Sep-19 19:29N 47°56' W 004°39'2 2.9
2017-Sep-19 18:58N 47°55' W 004°37'9 8.3
2017-Sep-19 17:52N 47°50' W 004°26'2 2.3
2017-Sep-19 16:48N 47°49' W 004°23'0 0.0
2017-Sep-19 06:03N 47°49' W 004°23'0 0.2
2017-Sep-19 05:53N 47°49' W 004°23'6 1.4
2017-Sep-19 01:27N 47°52' W 004°30'4 8.9
2017-Sep-19 00:59N 47°55' W 004°35'3 7.1
2017-Sep-19 00:30N 47°56' W 004°40'0 0.6
2017-Sep-18 23:49N 47°56' W 004°40'0 0.6
2017-Sep-18 23:31N 47°56' W 004°40'0 0.5
2017-Sep-18 23:00N 47°56' W 004°40'1 0.5
2017-Sep-18 22:03N 47°55' W 004°40'0 1.0
2017-Sep-18 22:00N 47°55' W 004°40'1 1.5
2017-Sep-18 21:30N 47°55' W 004°39'0 0.9
2017-Sep-18 21:01N 47°55' W 004°38'0 0.9
2017-Sep-18 20:30N 47°55' W 004°37'12 5.9
2017-Sep-18 18:33N 47°49' W 004°23'0 0.3
2017-Sep-18 18:07N 47°49' W 004°23'0 0.0
2017-Sep-18 17:54N 47°49' W 004°23'0 0.0
2017-Sep-18 12:38N 47°49' W 004°23'0 0.0
2017-Sep-18 02:24N 47°49' W 004°23'0 0.0
2017-Sep-18 01:56N 47°49' W 004°23'0 0.0
2017-Sep-18 01:30N 47°49' W 004°23'0 0.1
2017-Sep-17 23:53N 47°49' W 004°23'0 0.0
2017-Sep-17 22:53N 47°49' W 004°23'0 0.2
2017-Sep-17 21:53N 47°49' W 004°23'3 6.5
2017-Sep-17 21:29N 47°51' W 004°25'2 3.7
2017-Sep-17 20:58N 47°53' W 004°25'0 0.4
2017-Sep-17 20:09N 47°53' W 004°25'0 0.1
2017-Sep-17 20:01N 47°53' W 004°25'1 2.5
2017-Sep-17 19:30N 47°54' W 004°24'1 2.1
2017-Sep-17 18:58N 47°53' W 004°24'4 4.1
2017-Sep-17 17:58N 47°49' W 004°23'  
2017-Sep-15 12:53N 47°49' W 004°23'0 0.0
2017-Sep-15 01:48N 47°49' W 004°23'0 0.1
2017-Sep-14 23:48N 47°49' W 004°23'0 0.0
2017-Sep-14 22:48N 47°49' W 004°23'5 5.5
2017-Sep-14 21:53N 47°54' W 004°24'1 0.6
2017-Sep-14 20:58N 47°54' W 004°25'1 0.5
2017-Sep-14 19:58N 47°54' W 004°25'5 5.1
2017-Sep-14 18:58N 47°49' W 004°23'  

Dump ship's entire track history